sensor_id;sensor_type;location;lat;lon;timestamp;P1;durP1;ratioP1;P2;durP2;ratioP2
26181;SDS011;13927;51.534;11.866;2023-09-18T00:00:28;8.43;;;7.22;;
26181;SDS011;13927;51.534;11.866;2023-09-18T00:02:58;7.22;;;6.53;;
26181;SDS011;13927;51.534;11.866;2023-09-18T00:05:30;7.40;;;6.40;;
26181;SDS011;13927;51.534;11.866;2023-09-18T00:08:10;7.65;;;6.57;;
26181;SDS011;13927;51.534;11.866;2023-09-18T00:10:42;7.47;;;6.78;;
26181;SDS011;13927;51.534;11.866;2023-09-18T00:13:18;7.10;;;6.40;;
26181;SDS011;13927;51.534;11.866;2023-09-18T00:15:46;8.63;;;7.35;;
26181;SDS011;13927;51.534;11.866;2023-09-18T00:18:19;7.10;;;6.35;;
26181;SDS011;13927;51.534;11.866;2023-09-18T00:20:48;6.63;;;5.93;;
26181;SDS011;13927;51.534;11.866;2023-09-18T00:23:20;7.05;;;5.93;;
26181;SDS011;13927;51.534;11.866;2023-09-18T00:25:52;7.38;;;5.82;;
26181;SDS011;13927;51.534;11.866;2023-09-18T00:28:21;10.00;;;7.07;;
26181;SDS011;13927;51.534;11.866;2023-09-18T00:30:56;7.88;;;7.00;;
26181;SDS011;13927;51.534;11.866;2023-09-18T00:33:28;9.52;;;6.68;;
26181;SDS011;13927;51.534;11.866;2023-09-18T00:36:02;8.15;;;6.05;;
26181;SDS011;13927;51.534;11.866;2023-09-18T00:38:39;7.22;;;6.53;;
26181;SDS011;13927;51.534;11.866;2023-09-18T00:41:12;6.93;;;6.23;;
26181;SDS011;13927;51.534;11.866;2023-09-18T00:43:40;7.47;;;5.72;;
26181;SDS011;13927;51.534;11.866;2023-09-18T00:46:08;10.10;;;6.88;;
26181;SDS011;13927;51.534;11.866;2023-09-18T00:48:48;8.35;;;6.88;;
26181;SDS011;13927;51.534;11.866;2023-09-18T00:51:22;7.70;;;6.90;;
26181;SDS011;13927;51.534;11.866;2023-09-18T00:53:51;8.10;;;6.95;;
26181;SDS011;13927;51.534;11.866;2023-09-18T00:56:28;7.53;;;6.53;;
26181;SDS011;13927;51.534;11.866;2023-09-18T00:58:59;7.22;;;6.43;;
26181;SDS011;13927;51.534;11.866;2023-09-18T01:01:31;6.88;;;5.93;;
26181;SDS011;13927;51.534;11.866;2023-09-18T01:04:03;8.13;;;6.97;;
26181;SDS011;13927;51.534;11.866;2023-09-18T01:06:35;9.57;;;8.65;;
26181;SDS011;13927;51.534;11.866;2023-09-18T01:09:05;21.45;;;17.00;;
26181;SDS011;13927;51.534;11.866;2023-09-18T01:17:29;15.35;;;10.70;;
26181;SDS011;13927;51.534;11.866;2023-09-18T01:22:30;16.92;;;12.98;;
26181;SDS011;13927;51.534;11.866;2023-09-18T01:24:57;19.75;;;15.38;;
26181;SDS011;13927;51.534;11.866;2023-09-18T01:27:23;18.75;;;14.77;;
26181;SDS011;13927;51.534;11.866;2023-09-18T01:29:49;14.15;;;11.00;;
26181;SDS011;13927;51.534;11.866;2023-09-18T01:32:15;14.02;;;10.82;;
26181;SDS011;13927;51.534;11.866;2023-09-18T01:34:46;9.75;;;8.63;;
26181;SDS011;13927;51.534;11.866;2023-09-18T01:37:18;9.55;;;7.20;;
26181;SDS011;13927;51.534;11.866;2023-09-18T01:39:48;9.85;;;7.68;;
26181;SDS011;13927;51.534;11.866;2023-09-18T01:42:16;8.15;;;7.40;;
26181;SDS011;13927;51.534;11.866;2023-09-18T01:44:42;10.35;;;7.03;;
26181;SDS011;13927;51.534;11.866;2023-09-18T01:47:11;9.73;;;8.43;;
26181;SDS011;13927;51.534;11.866;2023-09-18T01:49:41;10.52;;;9.52;;
26181;SDS011;13927;51.534;11.866;2023-09-18T01:52:08;7.70;;;7.00;;
26181;SDS011;13927;51.534;11.866;2023-09-18T01:54:35;7.78;;;6.47;;
26181;SDS011;13927;51.534;11.866;2023-09-18T01:57:01;7.07;;;5.90;;
26181;SDS011;13927;51.534;11.866;2023-09-18T01:59:28;6.60;;;6.00;;
26181;SDS011;13927;51.534;11.866;2023-09-18T02:01:54;8.82;;;6.80;;
26181;SDS011;13927;51.534;11.866;2023-09-18T02:04:20;8.35;;;6.80;;
26181;SDS011;13927;51.534;11.866;2023-09-18T02:06:47;7.68;;;6.88;;
26181;SDS011;13927;51.534;11.866;2023-09-18T02:09:15;6.68;;;6.07;;
26181;SDS011;13927;51.534;11.866;2023-09-18T02:11:42;7.35;;;6.20;;
26181;SDS011;13927;51.534;11.866;2023-09-18T02:14:10;6.78;;;6.05;;
26181;SDS011;13927;51.534;11.866;2023-09-18T02:16:37;7.53;;;6.82;;
26181;SDS011;13927;51.534;11.866;2023-09-18T02:19:11;7.20;;;5.95;;
26181;SDS011;13927;51.534;11.866;2023-09-18T02:21:39;9.73;;;6.97;;
26181;SDS011;13927;51.534;11.866;2023-09-18T02:24:05;6.60;;;5.68;;
26181;SDS011;13927;51.534;11.866;2023-09-18T02:26:32;6.85;;;6.18;;
26181;SDS011;13927;51.534;11.866;2023-09-18T02:29:02;7.03;;;6.32;;
26181;SDS011;13927;51.534;11.866;2023-09-18T02:31:32;7.72;;;6.90;;
26181;SDS011;13927;51.534;11.866;2023-09-18T02:33:58;8.90;;;6.97;;
26181;SDS011;13927;51.534;11.866;2023-09-18T02:36:24;7.82;;;6.80;;
26181;SDS011;13927;51.534;11.866;2023-09-18T02:38:49;11.07;;;7.18;;
26181;SDS011;13927;51.534;11.866;2023-09-18T02:41:15;10.00;;;8.25;;
26181;SDS011;13927;51.534;11.866;2023-09-18T02:43:41;9.93;;;8.88;;
26181;SDS011;13927;51.534;11.866;2023-09-18T02:46:07;12.02;;;8.95;;
26181;SDS011;13927;51.534;11.866;2023-09-18T02:48:33;13.07;;;7.68;;
26181;SDS011;13927;51.534;11.866;2023-09-18T02:50:59;7.80;;;6.95;;
26181;SDS011;13927;51.534;11.866;2023-09-18T02:53:26;10.15;;;6.40;;
26181;SDS011;13927;51.534;11.866;2023-09-18T02:55:53;7.95;;;6.88;;
26181;SDS011;13927;51.534;11.866;2023-09-18T02:58:20;7.65;;;6.95;;
26181;SDS011;13927;51.534;11.866;2023-09-18T03:00:48;8.27;;;7.47;;
26181;SDS011;13927;51.534;11.866;2023-09-18T03:03:15;8.02;;;6.80;;
26181;SDS011;13927;51.534;11.866;2023-09-18T03:05:42;8.73;;;7.28;;
26181;SDS011;13927;51.534;11.866;2023-09-18T03:08:09;9.23;;;6.65;;
26181;SDS011;13927;51.534;11.866;2023-09-18T03:10:37;8.10;;;7.30;;
26181;SDS011;13927;51.534;11.866;2023-09-18T03:13:06;10.00;;;8.63;;
26181;SDS011;13927;51.534;11.866;2023-09-18T03:15:33;7.65;;;6.85;;
26181;SDS011;13927;51.534;11.866;2023-09-18T03:18:00;9.95;;;7.75;;
26181;SDS011;13927;51.534;11.866;2023-09-18T03:20:28;9.48;;;8.35;;
26181;SDS011;13927;51.534;11.866;2023-09-18T03:22:55;8.88;;;7.72;;
26181;SDS011;13927;51.534;11.866;2023-09-18T03:25:23;13.63;;;8.10;;
26181;SDS011;13927;51.534;11.866;2023-09-18T03:27:50;9.38;;;7.55;;
26181;SDS011;13927;51.534;11.866;2023-09-18T03:30:18;9.63;;;7.95;;
26181;SDS011;13927;51.534;11.866;2023-09-18T03:32:45;9.15;;;8.15;;
26181;SDS011;13927;51.534;11.866;2023-09-18T03:35:11;9.82;;;8.82;;
26181;SDS011;13927;51.534;11.866;2023-09-18T03:37:47;8.57;;;7.70;;
26181;SDS011;13927;51.534;11.866;2023-09-18T03:40:14;9.23;;;7.75;;
26181;SDS011;13927;51.534;11.866;2023-09-18T03:42:41;9.18;;;7.78;;
26181;SDS011;13927;51.534;11.866;2023-09-18T03:45:07;7.72;;;6.95;;
26181;SDS011;13927;51.534;11.866;2023-09-18T03:47:34;8.95;;;7.90;;
26181;SDS011;13927;51.534;11.866;2023-09-18T03:50:01;9.18;;;7.93;;
26181;SDS011;13927;51.534;11.866;2023-09-18T03:52:28;9.00;;;7.63;;
26181;SDS011;13927;51.534;11.866;2023-09-18T03:54:54;10.00;;;7.60;;
26181;SDS011;13927;51.534;11.866;2023-09-18T03:57:20;8.77;;;7.45;;
26181;SDS011;13927;51.534;11.866;2023-09-18T03:59:45;11.00;;;8.02;;
26181;SDS011;13927;51.534;11.866;2023-09-18T04:02:11;8.52;;;7.70;;
26181;SDS011;13927;51.534;11.866;2023-09-18T04:04:37;9.23;;;8.32;;
26181;SDS011;13927;51.534;11.866;2023-09-18T04:07:06;8.98;;;7.93;;
26181;SDS011;13927;51.534;11.866;2023-09-18T04:09:32;9.63;;;8.02;;
26181;SDS011;13927;51.534;11.866;2023-09-18T04:12:04;9.55;;;7.63;;
26181;SDS011;13927;51.534;11.866;2023-09-18T04:14:33;10.25;;;7.80;;
26181;SDS011;13927;51.534;11.866;2023-09-18T04:16:59;8.05;;;7.22;;
26181;SDS011;13927;51.534;11.866;2023-09-18T04:19:25;9.57;;;7.50;;
26181;SDS011;13927;51.534;11.866;2023-09-18T04:21:51;9.00;;;8.05;;
26181;SDS011;13927;51.534;11.866;2023-09-18T04:24:17;9.70;;;7.65;;
26181;SDS011;13927;51.534;11.866;2023-09-18T04:26:43;10.20;;;7.95;;
26181;SDS011;13927;51.534;11.866;2023-09-18T04:29:09;9.93;;;8.65;;
26181;SDS011;13927;51.534;11.866;2023-09-18T04:31:35;10.25;;;7.78;;
26181;SDS011;13927;51.534;11.866;2023-09-18T04:34:00;9.52;;;7.50;;
26181;SDS011;13927;51.534;11.866;2023-09-18T04:36:27;10.10;;;8.63;;
26181;SDS011;13927;51.534;11.866;2023-09-18T04:38:53;10.05;;;9.05;;
26181;SDS011;13927;51.534;11.866;2023-09-18T04:41:19;9.40;;;8.43;;
26181;SDS011;13927;51.534;11.866;2023-09-18T04:43:45;9.82;;;8.48;;
26181;SDS011;13927;51.534;11.866;2023-09-18T04:46:11;8.93;;;8.02;;
26181;SDS011;13927;51.534;11.866;2023-09-18T04:48:37;10.48;;;8.05;;
26181;SDS011;13927;51.534;11.866;2023-09-18T04:51:03;8.85;;;7.95;;
26181;SDS011;13927;51.534;11.866;2023-09-18T04:53:30;13.48;;;8.18;;
26181;SDS011;13927;51.534;11.866;2023-09-18T04:55:57;9.30;;;8.10;;
26181;SDS011;13927;51.534;11.866;2023-09-18T04:58:23;8.52;;;7.68;;
26181;SDS011;13927;51.534;11.866;2023-09-18T05:00:55;9.10;;;8.20;;
26181;SDS011;13927;51.534;11.866;2023-09-18T05:05:48;12.80;;;9.25;;
26181;SDS011;13927;51.534;11.866;2023-09-18T05:08:14;11.23;;;9.35;;
26181;SDS011;13927;51.534;11.866;2023-09-18T05:10:40;9.68;;;8.68;;
26181;SDS011;13927;51.534;11.866;2023-09-18T05:13:06;11.18;;;10.07;;
26181;SDS011;13927;51.534;11.866;2023-09-18T05:15:32;12.10;;;9.30;;
26181;SDS011;13927;51.534;11.866;2023-09-18T05:17:59;10.40;;;9.30;;
26181;SDS011;13927;51.534;11.866;2023-09-18T05:20:26;9.30;;;8.00;;
26181;SDS011;13927;51.534;11.866;2023-09-18T05:22:54;10.50;;;9.02;;
26181;SDS011;13927;51.534;11.866;2023-09-18T05:25:22;9.60;;;8.60;;
26181;SDS011;13927;51.534;11.866;2023-09-18T05:27:52;9.68;;;8.63;;
26181;SDS011;13927;51.534;11.866;2023-09-18T05:30:26;9.85;;;8.88;;
26181;SDS011;13927;51.534;11.866;2023-09-18T05:32:58;11.73;;;8.88;;
26181;SDS011;13927;51.534;11.866;2023-09-18T05:35:33;9.13;;;8.25;;
26181;SDS011;13927;51.534;11.866;2023-09-18T05:38:05;10.52;;;9.35;;
26181;SDS011;13927;51.534;11.866;2023-09-18T05:40:31;10.00;;;8.93;;
26181;SDS011;13927;51.534;11.866;2023-09-18T05:42:58;9.98;;;8.77;;
26181;SDS011;13927;51.534;11.866;2023-09-18T05:45:24;10.13;;;8.13;;
26181;SDS011;13927;51.534;11.866;2023-09-18T05:47:51;9.70;;;8.70;;
26181;SDS011;13927;51.534;11.866;2023-09-18T05:50:18;9.48;;;8.48;;
26181;SDS011;13927;51.534;11.866;2023-09-18T05:52:45;10.63;;;8.98;;
26181;SDS011;13927;51.534;11.866;2023-09-18T05:55:16;9.45;;;8.13;;
26181;SDS011;13927;51.534;11.866;2023-09-18T05:57:42;8.30;;;7.45;;
26181;SDS011;13927;51.534;11.866;2023-09-18T06:00:08;10.00;;;8.50;;
26181;SDS011;13927;51.534;11.866;2023-09-18T06:02:38;12.35;;;8.10;;
26181;SDS011;13927;51.534;11.866;2023-09-18T06:05:05;10.27;;;8.15;;
26181;SDS011;13927;51.534;11.866;2023-09-18T06:07:32;9.20;;;8.30;;
26181;SDS011;13927;51.534;11.866;2023-09-18T06:09:58;8.43;;;7.68;;
26181;SDS011;13927;51.534;11.866;2023-09-18T06:12:24;15.50;;;10.55;;
26181;SDS011;13927;51.534;11.866;2023-09-18T06:14:50;9.05;;;8.07;;
26181;SDS011;13927;51.534;11.866;2023-09-18T06:17:17;9.05;;;8.23;;
26181;SDS011;13927;51.534;11.866;2023-09-18T06:19:43;8.35;;;7.55;;
26181;SDS011;13927;51.534;11.866;2023-09-18T06:22:11;8.55;;;7.72;;
26181;SDS011;13927;51.534;11.866;2023-09-18T06:24:38;8.77;;;7.80;;
26181;SDS011;13927;51.534;11.866;2023-09-18T06:27:05;9.68;;;7.72;;
26181;SDS011;13927;51.534;11.866;2023-09-18T06:29:34;10.60;;;8.05;;
26181;SDS011;13927;51.534;11.866;2023-09-18T06:32:02;8.65;;;7.75;;
26181;SDS011;13927;51.534;11.866;2023-09-18T06:34:29;9.05;;;7.90;;
26181;SDS011;13927;51.534;11.866;2023-09-18T06:36:54;8.10;;;7.30;;
26181;SDS011;13927;51.534;11.866;2023-09-18T06:39:20;7.80;;;6.97;;
26181;SDS011;13927;51.534;11.866;2023-09-18T06:41:48;7.70;;;7.00;;
26181;SDS011;13927;51.534;11.866;2023-09-18T06:44:15;8.98;;;6.28;;
26181;SDS011;13927;51.534;11.866;2023-09-18T06:46:42;7.63;;;6.40;;
26181;SDS011;13927;51.534;11.866;2023-09-18T06:49:08;9.13;;;6.53;;
26181;SDS011;13927;51.534;11.866;2023-09-18T06:51:35;7.38;;;6.43;;
26181;SDS011;13927;51.534;11.866;2023-09-18T06:54:01;8.00;;;6.82;;
26181;SDS011;13927;51.534;11.866;2023-09-18T06:56:28;8.18;;;7.38;;
26181;SDS011;13927;51.534;11.866;2023-09-18T06:58:54;6.95;;;6.20;;
26181;SDS011;13927;51.534;11.866;2023-09-18T07:01:21;8.23;;;6.78;;
26181;SDS011;13927;51.534;11.866;2023-09-18T07:03:49;9.27;;;6.43;;
26181;SDS011;13927;51.534;11.866;2023-09-18T07:06:16;7.00;;;6.07;;
26181;SDS011;13927;51.534;11.866;2023-09-18T07:08:45;7.70;;;5.70;;
26181;SDS011;13927;51.534;11.866;2023-09-18T07:11:14;6.50;;;5.80;;
26181;SDS011;13927;51.534;11.866;2023-09-18T07:13:41;7.95;;;6.32;;
26181;SDS011;13927;51.534;11.866;2023-09-18T07:16:08;7.13;;;5.97;;
26181;SDS011;13927;51.534;11.866;2023-09-18T07:18:35;8.57;;;5.80;;
26181;SDS011;13927;51.534;11.866;2023-09-18T07:21:01;6.45;;;5.80;;
26181;SDS011;13927;51.534;11.866;2023-09-18T07:23:27;6.32;;;5.60;;
26181;SDS011;13927;51.534;11.866;2023-09-18T07:25:53;6.65;;;5.38;;
26181;SDS011;13927;51.534;11.866;2023-09-18T07:28:19;5.28;;;4.68;;
26181;SDS011;13927;51.534;11.866;2023-09-18T07:30:46;6.95;;;5.05;;
26181;SDS011;13927;51.534;11.866;2023-09-18T07:33:13;6.32;;;5.18;;
26181;SDS011;13927;51.534;11.866;2023-09-18T07:35:44;5.18;;;4.68;;
26181;SDS011;13927;51.534;11.866;2023-09-18T07:38:13;8.38;;;4.75;;
26181;SDS011;13927;51.534;11.866;2023-09-18T07:40:40;6.22;;;4.63;;
26181;SDS011;13927;51.534;11.866;2023-09-18T07:43:07;5.97;;;4.70;;
26181;SDS011;13927;51.534;11.866;2023-09-18T07:45:33;5.82;;;4.85;;
26181;SDS011;13927;51.534;11.866;2023-09-18T07:48:00;5.55;;;4.95;;
26181;SDS011;13927;51.534;11.866;2023-09-18T07:50:26;7.07;;;4.20;;
26181;SDS011;13927;51.534;11.866;2023-09-18T07:52:53;7.72;;;5.10;;
26181;SDS011;13927;51.534;11.866;2023-09-18T07:55:19;7.50;;;4.43;;
26181;SDS011;13927;51.534;11.866;2023-09-18T07:57:45;6.10;;;4.78;;
26181;SDS011;13927;51.534;11.866;2023-09-18T08:00:14;6.25;;;4.72;;
26181;SDS011;13927;51.534;11.866;2023-09-18T08:02:41;7.22;;;4.68;;
26181;SDS011;13927;51.534;11.866;2023-09-18T08:05:07;4.60;;;4.20;;
26181;SDS011;13927;51.534;11.866;2023-09-18T08:07:34;6.00;;;4.38;;
26181;SDS011;13927;51.534;11.866;2023-09-18T08:10:03;7.15;;;4.60;;
26181;SDS011;13927;51.534;11.866;2023-09-18T08:12:33;16.17;;;9.85;;
26181;SDS011;13927;51.534;11.866;2023-09-18T08:15:01;6.13;;;4.93;;
26181;SDS011;13927;51.534;11.866;2023-09-18T08:17:28;5.32;;;4.20;;
26181;SDS011;13927;51.534;11.866;2023-09-18T08:19:54;4.93;;;4.03;;
26181;SDS011;13927;51.534;11.866;2023-09-18T08:22:20;5.68;;;4.53;;
26181;SDS011;13927;51.534;11.866;2023-09-18T08:24:47;6.45;;;4.82;;
26181;SDS011;13927;51.534;11.866;2023-09-18T08:27:18;6.15;;;4.47;;
26181;SDS011;13927;51.534;11.866;2023-09-18T08:29:45;5.85;;;4.32;;
26181;SDS011;13927;51.534;11.866;2023-09-18T08:32:12;5.82;;;4.93;;
26181;SDS011;13927;51.534;11.866;2023-09-18T08:34:38;5.00;;;4.00;;
26181;SDS011;13927;51.534;11.866;2023-09-18T08:37:05;6.20;;;4.80;;
26181;SDS011;13927;51.534;11.866;2023-09-18T08:39:31;5.00;;;4.53;;
26181;SDS011;13927;51.534;11.866;2023-09-18T08:41:59;5.20;;;4.43;;
26181;SDS011;13927;51.534;11.866;2023-09-18T08:44:30;6.43;;;4.70;;
26181;SDS011;13927;51.534;11.866;2023-09-18T08:46:57;6.68;;;4.80;;
26181;SDS011;13927;51.534;11.866;2023-09-18T08:49:23;5.00;;;4.50;;
26181;SDS011;13927;51.534;11.866;2023-09-18T08:51:50;6.15;;;4.50;;
26181;SDS011;13927;51.534;11.866;2023-09-18T08:54:20;5.57;;;4.30;;
26181;SDS011;13927;51.534;11.866;2023-09-18T08:56:51;4.93;;;4.38;;
26181;SDS011;13927;51.534;11.866;2023-09-18T08:59:17;8.40;;;4.63;;
26181;SDS011;13927;51.534;11.866;2023-09-18T09:01:51;5.68;;;4.15;;
26181;SDS011;13927;51.534;11.866;2023-09-18T09:04:17;9.27;;;4.95;;
26181;SDS011;13927;51.534;11.866;2023-09-18T09:06:43;5.72;;;4.50;;
26181;SDS011;13927;51.534;11.866;2023-09-18T09:09:09;5.40;;;4.38;;
26181;SDS011;13927;51.534;11.866;2023-09-18T09:11:38;6.25;;;4.13;;
26181;SDS011;13927;51.534;11.866;2023-09-18T09:14:13;5.18;;;4.13;;
26181;SDS011;13927;51.534;11.866;2023-09-18T09:16:46;6.55;;;4.45;;
26181;SDS011;13927;51.534;11.866;2023-09-18T09:19:30;6.32;;;4.25;;
26181;SDS011;13927;51.534;11.866;2023-09-18T09:22:02;4.88;;;3.63;;
26181;SDS011;13927;51.534;11.866;2023-09-18T09:24:35;9.57;;;4.50;;
26181;SDS011;13927;51.534;11.866;2023-09-18T09:27:08;4.80;;;4.00;;
26181;SDS011;13927;51.534;11.866;2023-09-18T09:29:39;4.85;;;4.05;;
26181;SDS011;13927;51.534;11.866;2023-09-18T09:32:12;7.95;;;3.75;;
26181;SDS011;13927;51.534;11.866;2023-09-18T09:34:40;5.30;;;3.80;;
26181;SDS011;13927;51.534;11.866;2023-09-18T09:37:07;6.82;;;3.63;;
26181;SDS011;13927;51.534;11.866;2023-09-18T09:39:33;5.32;;;3.58;;
26181;SDS011;13927;51.534;11.866;2023-09-18T09:42:01;4.57;;;3.10;;
26181;SDS011;13927;51.534;11.866;2023-09-18T09:44:31;5.22;;;3.50;;
26181;SDS011;13927;51.534;11.866;2023-09-18T09:46:59;5.45;;;4.00;;
26181;SDS011;13927;51.534;11.866;2023-09-18T09:49:25;4.97;;;3.95;;
26181;SDS011;13927;51.534;11.866;2023-09-18T09:51:58;7.45;;;4.05;;
26181;SDS011;13927;51.534;11.866;2023-09-18T09:54:31;4.13;;;3.72;;
26181;SDS011;13927;51.534;11.866;2023-09-18T09:57:04;5.97;;;3.53;;
26181;SDS011;13927;51.534;11.866;2023-09-18T09:59:31;5.45;;;4.07;;
26181;SDS011;13927;51.534;11.866;2023-09-18T10:02:00;5.75;;;3.88;;
26181;SDS011;13927;51.534;11.866;2023-09-18T10:04:27;7.65;;;4.47;;
26181;SDS011;13927;51.534;11.866;2023-09-18T10:06:58;8.48;;;4.30;;
26181;SDS011;13927;51.534;11.866;2023-09-18T10:09:37;5.80;;;3.72;;
26181;SDS011;13927;51.534;11.866;2023-09-18T10:12:12;6.45;;;3.95;;
26181;SDS011;13927;51.534;11.866;2023-09-18T10:14:48;10.77;;;4.50;;
26181;SDS011;13927;51.534;11.866;2023-09-18T10:17:21;7.43;;;3.77;;
26181;SDS011;13927;51.534;11.866;2023-09-18T10:22:42;7.80;;;4.55;;
26181;SDS011;13927;51.534;11.866;2023-09-18T10:25:14;7.15;;;3.60;;
26181;SDS011;13927;51.534;11.866;2023-09-18T10:27:48;7.43;;;4.10;;
26181;SDS011;13927;51.534;11.866;2023-09-18T10:30:19;8.45;;;4.63;;
26181;SDS011;13927;51.534;11.866;2023-09-18T10:32:49;6.90;;;3.67;;
26181;SDS011;13927;51.534;11.866;2023-09-18T10:35:17;8.48;;;4.28;;
26181;SDS011;13927;51.534;11.866;2023-09-18T10:37:45;5.38;;;3.35;;
26181;SDS011;13927;51.534;11.866;2023-09-18T10:40:16;9.00;;;3.67;;
26181;SDS011;13927;51.534;11.866;2023-09-18T10:42:43;8.75;;;4.45;;
26181;SDS011;13927;51.534;11.866;2023-09-18T10:45:12;8.68;;;3.90;;
26181;SDS011;13927;51.534;11.866;2023-09-18T10:47:43;6.32;;;4.00;;
26181;SDS011;13927;51.534;11.866;2023-09-18T10:50:12;8.65;;;3.78;;
26181;SDS011;13927;51.534;11.866;2023-09-18T10:52:50;8.73;;;4.00;;
26181;SDS011;13927;51.534;11.866;2023-09-18T10:55:16;10.15;;;4.13;;
26181;SDS011;13927;51.534;11.866;2023-09-18T10:58:15;6.88;;;4.13;;
26181;SDS011;13927;51.534;11.866;2023-09-18T11:00:34;6.15;;;3.67;;
26181;SDS011;13927;51.534;11.866;2023-09-18T11:03:14;8.32;;;3.83;;
26181;SDS011;13927;51.534;11.866;2023-09-18T11:05:45;8.18;;;4.07;;
26181;SDS011;13927;51.534;11.866;2023-09-18T11:11:06;7.63;;;3.75;;
26181;SDS011;13927;51.534;11.866;2023-09-18T11:13:45;7.43;;;4.00;;
26181;SDS011;13927;51.534;11.866;2023-09-18T11:18:54;5.97;;;3.88;;
26181;SDS011;13927;51.534;11.866;2023-09-18T11:21:34;5.22;;;3.53;;
26181;SDS011;13927;51.534;11.866;2023-09-18T11:24:04;10.05;;;3.67;;
26181;SDS011;13927;51.534;11.866;2023-09-18T11:26:41;6.40;;;3.25;;
26181;SDS011;13927;51.534;11.866;2023-09-18T11:29:10;7.85;;;3.90;;
26181;SDS011;13927;51.534;11.866;2023-09-18T11:31:40;8.30;;;3.75;;
26181;SDS011;13927;51.534;11.866;2023-09-18T11:36:47;7.47;;;3.88;;
26181;SDS011;13927;51.534;11.866;2023-09-18T11:39:14;7.72;;;3.75;;
26181;SDS011;13927;51.534;11.866;2023-09-18T11:44:39;13.38;;;4.13;;
26181;SDS011;13927;51.534;11.866;2023-09-18T11:47:12;8.52;;;3.28;;
26181;SDS011;13927;51.534;11.866;2023-09-18T11:49:51;11.98;;;3.70;;
26181;SDS011;13927;51.534;11.866;2023-09-18T11:52:21;6.63;;;3.63;;
26181;SDS011;13927;51.534;11.866;2023-09-18T11:54:48;6.20;;;3.42;;
26181;SDS011;13927;51.534;11.866;2023-09-18T11:57:15;6.57;;;3.03;;
26181;SDS011;13927;51.534;11.866;2023-09-18T11:59:45;9.25;;;3.83;;
26181;SDS011;13927;51.534;11.866;2023-09-18T12:02:30;6.05;;;3.10;;
26181;SDS011;13927;51.534;11.866;2023-09-18T12:07:42;8.85;;;2.97;;
26181;SDS011;13927;51.534;11.866;2023-09-18T12:10:11;5.20;;;3.42;;
26181;SDS011;13927;51.534;11.866;2023-09-18T12:12:42;7.78;;;3.33;;
26181;SDS011;13927;51.534;11.866;2023-09-18T12:15:11;6.13;;;3.22;;
26181;SDS011;13927;51.534;11.866;2023-09-18T12:17:39;6.03;;;3.30;;
26181;SDS011;13927;51.534;11.866;2023-09-18T12:20:05;8.60;;;4.72;;
26181;SDS011;13927;51.534;11.866;2023-09-18T12:22:31;6.80;;;3.30;;
26181;SDS011;13927;51.534;11.866;2023-09-18T12:27:42;6.40;;;3.17;;
26181;SDS011;13927;51.534;11.866;2023-09-18T12:30:10;8.60;;;3.65;;
26181;SDS011;13927;51.534;11.866;2023-09-18T12:32:45;8.80;;;3.20;;
26181;SDS011;13927;51.534;11.866;2023-09-18T12:35:16;7.88;;;3.30;;
26181;SDS011;13927;51.534;11.866;2023-09-18T12:37:46;6.25;;;2.58;;
26181;SDS011;13927;51.534;11.866;2023-09-18T12:40:25;9.10;;;3.47;;
26181;SDS011;13927;51.534;11.866;2023-09-18T12:42:58;6.82;;;2.72;;
26181;SDS011;13927;51.534;11.866;2023-09-18T12:45:25;8.38;;;2.80;;
26181;SDS011;13927;51.534;11.866;2023-09-18T12:47:54;7.45;;;3.00;;
26181;SDS011;13927;51.534;11.866;2023-09-18T12:50:22;4.88;;;2.70;;
26181;SDS011;13927;51.534;11.866;2023-09-18T12:52:49;7.03;;;2.65;;
26181;SDS011;13927;51.534;11.866;2023-09-18T12:55:21;9.02;;;2.92;;
26181;SDS011;13927;51.534;11.866;2023-09-18T12:57:52;6.00;;;3.25;;
26181;SDS011;13927;51.534;11.866;2023-09-18T13:00:19;6.40;;;3.10;;
26181;SDS011;13927;51.534;11.866;2023-09-18T13:02:48;6.65;;;2.92;;
26181;SDS011;13927;51.534;11.866;2023-09-18T13:05:20;12.38;;;2.95;;
26181;SDS011;13927;51.534;11.866;2023-09-18T13:07:51;6.65;;;3.35;;
26181;SDS011;13927;51.534;11.866;2023-09-18T13:10:18;5.47;;;2.28;;
26181;SDS011;13927;51.534;11.866;2023-09-18T13:12:50;5.18;;;2.75;;
26181;SDS011;13927;51.534;11.866;2023-09-18T13:17:55;3.60;;;2.50;;
26181;SDS011;13927;51.534;11.866;2023-09-18T13:20:26;4.72;;;2.67;;
26181;SDS011;13927;51.534;11.866;2023-09-18T13:22:55;5.47;;;2.22;;
26181;SDS011;13927;51.534;11.866;2023-09-18T13:25:33;5.50;;;2.58;;
26181;SDS011;13927;51.534;11.866;2023-09-18T13:28:03;6.00;;;2.25;;
26181;SDS011;13927;51.534;11.866;2023-09-18T13:30:33;9.52;;;2.78;;
26181;SDS011;13927;51.534;11.866;2023-09-18T13:33:07;7.13;;;2.70;;
26181;SDS011;13927;51.534;11.866;2023-09-18T13:35:38;5.93;;;2.67;;
26181;SDS011;13927;51.534;11.866;2023-09-18T13:38:06;5.60;;;2.80;;
26181;SDS011;13927;51.534;11.866;2023-09-18T13:40:42;5.07;;;2.28;;
26181;SDS011;13927;51.534;11.866;2023-09-18T13:43:11;4.70;;;2.10;;
26181;SDS011;13927;51.534;11.866;2023-09-18T13:45:40;5.82;;;2.42;;
26181;SDS011;13927;51.534;11.866;2023-09-18T13:48:07;7.13;;;2.67;;
26181;SDS011;13927;51.534;11.866;2023-09-18T13:50:33;8.23;;;2.58;;
26181;SDS011;13927;51.534;11.866;2023-09-18T13:53:02;6.57;;;2.85;;
26181;SDS011;13927;51.534;11.866;2023-09-18T13:55:32;8.25;;;2.70;;
26181;SDS011;13927;51.534;11.866;2023-09-18T13:57:59;6.75;;;2.83;;
26181;SDS011;13927;51.534;11.866;2023-09-18T14:00:28;7.43;;;2.83;;
26181;SDS011;13927;51.534;11.866;2023-09-18T14:02:54;6.57;;;2.70;;
26181;SDS011;13927;51.534;11.866;2023-09-18T14:05:20;5.45;;;2.50;;
26181;SDS011;13927;51.534;11.866;2023-09-18T14:07:46;7.20;;;3.25;;
26181;SDS011;13927;51.534;11.866;2023-09-18T14:10:13;8.43;;;3.05;;
26181;SDS011;13927;51.534;11.866;2023-09-18T14:12:39;6.43;;;2.53;;
26181;SDS011;13927;51.534;11.866;2023-09-18T14:15:09;8.45;;;3.22;;
26181;SDS011;13927;51.534;11.866;2023-09-18T14:17:35;6.78;;;3.00;;
26181;SDS011;13927;51.534;11.866;2023-09-18T14:20:03;6.97;;;2.78;;
26181;SDS011;13927;51.534;11.866;2023-09-18T14:22:31;11.02;;;3.10;;
26181;SDS011;13927;51.534;11.866;2023-09-18T14:25:01;6.10;;;2.88;;
26181;SDS011;13927;51.534;11.866;2023-09-18T14:27:30;6.53;;;2.80;;
26181;SDS011;13927;51.534;11.866;2023-09-18T14:29:57;5.70;;;3.03;;
26181;SDS011;13927;51.534;11.866;2023-09-18T14:32:23;4.93;;;2.92;;
26181;SDS011;13927;51.534;11.866;2023-09-18T14:34:49;4.65;;;2.58;;
26181;SDS011;13927;51.534;11.866;2023-09-18T14:37:14;6.60;;;3.17;;
26181;SDS011;13927;51.534;11.866;2023-09-18T14:39:41;6.35;;;2.78;;
26181;SDS011;13927;51.534;11.866;2023-09-18T14:42:07;9.05;;;3.58;;
26181;SDS011;13927;51.534;11.866;2023-09-18T14:44:33;5.55;;;3.13;;
26181;SDS011;13927;51.534;11.866;2023-09-18T14:46:59;5.28;;;2.80;;
26181;SDS011;13927;51.534;11.866;2023-09-18T14:49:25;6.07;;;3.22;;
26181;SDS011;13927;51.534;11.866;2023-09-18T14:51:52;6.15;;;2.80;;
26181;SDS011;13927;51.534;11.866;2023-09-18T14:54:19;5.03;;;3.17;;
26181;SDS011;13927;51.534;11.866;2023-09-18T14:56:46;9.25;;;3.35;;
26181;SDS011;13927;51.534;11.866;2023-09-18T14:59:12;7.30;;;3.70;;
26181;SDS011;13927;51.534;11.866;2023-09-18T15:01:38;4.60;;;3.00;;
26181;SDS011;13927;51.534;11.866;2023-09-18T15:04:04;6.03;;;3.38;;
26181;SDS011;13927;51.534;11.866;2023-09-18T15:06:29;3.92;;;3.00;;
26181;SDS011;13927;51.534;11.866;2023-09-18T15:08:55;5.10;;;3.00;;
26181;SDS011;13927;51.534;11.866;2023-09-18T15:11:21;5.20;;;3.03;;
26181;SDS011;13927;51.534;11.866;2023-09-18T15:13:48;5.82;;;3.13;;